createdAt,value
2022-11-25T00:01:12.762Z,100367.78
2022-11-25T00:03:40.868Z,100372.38
2022-11-25T00:06:18.979Z,100364.28
2022-11-25T00:08:47.538Z,100374.94
2022-11-25T00:11:15.156Z,100356.97
2022-11-25T00:13:43.324Z,100383.88
2022-11-25T00:16:13.130Z,100337.00
2022-11-25T00:18:40.635Z,100377.22
2022-11-25T00:21:09.675Z,100374.47
2022-11-25T00:23:37.560Z,100380.38
2022-11-25T00:26:10.555Z,100375.56
2022-11-25T00:28:38.069Z,100367.16
2022-11-25T00:31:16.754Z,100302.16
2022-11-25T00:33:45.480Z,100348.75
2022-11-25T00:36:23.261Z,100362.41
2022-11-25T00:39:01.645Z,100349.91
2022-11-25T00:41:47.999Z,100365.97
2022-11-25T00:44:38.585Z,100363.63
2022-11-25T00:47:12.035Z,100237.28
2022-11-25T00:49:40.994Z,100367.13
2022-11-25T00:52:09.120Z,100371.28
2022-11-25T00:54:36.186Z,100249.25
2022-11-25T00:57:03.381Z,100386.28
2022-11-25T00:59:30.593Z,100342.66
2022-11-25T01:01:59.457Z,100403.09
2022-11-25T01:04:26.626Z,100374.19
2022-11-25T01:06:54.265Z,100281.66
2022-11-25T01:09:21.136Z,100310.06
2022-11-25T01:11:50.770Z,100370.00
2022-11-25T01:14:18.592Z,100372.13
2022-11-25T01:16:47.695Z,100314.44
2022-11-25T01:19:15.350Z,100313.03
2022-11-25T01:21:42.899Z,100368.47
2022-11-25T01:24:13.984Z,100372.34
2022-11-25T01:26:41.429Z,100371.91
2022-11-25T01:29:13.427Z,100059.88
2022-11-25T01:31:40.379Z,100256.13
2022-11-25T01:34:18.720Z,100382.44
2022-11-25T01:36:45.694Z,100310.94
2022-11-25T01:39:27.093Z,100382.25
2022-11-25T01:41:58.775Z,100391.56
2022-11-25T01:44:30.731Z,100310.13
2022-11-25T01:47:06.371Z,100381.41
2022-11-25T01:49:42.145Z,100393.00
2022-11-25T01:52:12.704Z,100394.00
2022-11-25T01:55:08.222Z,100347.91
2022-11-25T01:57:50.961Z,100266.19
2022-11-25T02:00:19.349Z,100426.59
2022-11-25T02:02:50.230Z,100400.75
2022-11-25T02:05:22.121Z,100398.91
2022-11-25T02:07:51.610Z,100405.25
2022-11-25T02:10:27.353Z,100197.19
2022-11-25T02:12:55.668Z,100344.19
2022-11-25T02:15:23.241Z,100332.50
2022-11-25T02:17:51.039Z,100386.31
2022-11-25T02:20:20.896Z,100321.09
2022-11-25T02:22:52.128Z,100407.63
2022-11-25T02:25:39.021Z,100404.22
2022-11-25T02:28:18.116Z,100400.34
2022-11-25T02:30:47.002Z,100402.94
2022-11-25T02:33:15.867Z,100325.47
2022-11-25T02:35:49.850Z,100379.97
2022-11-25T02:38:39.418Z,100399.69
2022-11-25T02:41:16.355Z,100405.44
2022-11-25T02:43:46.077Z,100414.88
2022-11-25T02:46:21.842Z,100362.22
2022-11-25T02:51:37.750Z,100403.44
2022-11-25T02:54:04.726Z,100395.84
2022-11-25T02:56:34.604Z,100295.72
2022-11-25T02:59:02.112Z,100403.34
2022-11-25T03:01:31.464Z,100393.34
2022-11-25T03:03:59.313Z,100355.75
2022-11-25T03:06:29.330Z,100307.47
2022-11-25T03:08:56.804Z,100365.31
2022-11-25T03:11:46.768Z,100374.91
2022-11-25T03:14:14.697Z,100261.41
2022-11-25T03:16:42.731Z,100333.34
2022-11-25T03:19:09.626Z,100419.91
2022-11-25T03:21:36.773Z,100416.66
2022-11-25T03:24:03.690Z,100318.69
2022-11-25T03:26:30.548Z,100287.19
2022-11-25T03:28:57.381Z,100419.16
2022-11-25T03:31:24.169Z,100416.50
2022-11-25T03:33:50.980Z,100418.34
2022-11-25T03:36:17.715Z,100422.56
2022-11-25T03:38:44.458Z,100417.22
2022-11-25T03:41:11.181Z,100378.81
2022-11-25T03:43:38.084Z,100426.75
2022-11-25T03:46:05.018Z,100391.25
2022-11-25T03:48:32.167Z,100437.97
2022-11-25T03:50:58.897Z,100429.88
2022-11-25T03:53:27.798Z,100286.34
2022-11-25T03:55:54.561Z,100283.59
2022-11-25T03:58:24.498Z,100426.00
2022-11-25T04:00:51.617Z,100409.31
2022-11-25T04:03:18.876Z,100439.19
2022-11-25T04:05:45.729Z,100030.88
2022-11-25T04:08:13.172Z,100417.19
2022-11-25T04:10:39.986Z,100401.56
2022-11-25T04:13:08.584Z,100432.78
2022-11-25T04:15:47.481Z,100426.56
2022-11-25T04:18:16.968Z,100437.31
2022-11-25T04:20:43.936Z,100438.38
2022-11-25T04:23:13.521Z,100432.88
2022-11-25T04:25:49.763Z,100424.31
2022-11-25T04:28:23.492Z,100445.72
2022-11-25T04:30:50.681Z,100427.66
2022-11-25T04:33:17.777Z,100437.31
2022-11-25T04:35:47.014Z,100430.47
2022-11-25T04:38:14.007Z,100432.06
2022-11-25T04:40:40.758Z,100323.19
2022-11-25T04:43:16.936Z,100423.28
2022-11-25T04:48:37.452Z,100427.78
2022-11-25T04:51:04.491Z,100429.28
2022-11-25T04:53:32.112Z,100440.38
2022-11-25T04:55:58.951Z,100447.78
2022-11-25T04:58:44.590Z,100366.53
2022-11-25T05:01:11.691Z,100437.75
2022-11-25T05:03:48.785Z,100446.09
2022-11-25T05:06:17.796Z,100438.66
2022-11-25T05:08:44.545Z,100420.25
2022-11-25T05:11:11.999Z,100447.41
2022-11-25T05:13:38.670Z,100449.09
2022-11-25T05:16:07.121Z,100439.34
2022-11-25T05:18:33.929Z,100452.66
2022-11-25T05:21:02.672Z,100363.97
2022-11-25T05:23:31.969Z,100453.78
2022-11-25T05:26:04.297Z,100462.88
2022-11-25T05:28:38.053Z,100427.00
2022-11-25T05:31:06.216Z,100325.47
2022-11-25T05:33:33.181Z,100401.31
2022-11-25T05:36:03.246Z,100475.69
2022-11-25T05:38:36.790Z,100466.78
2022-11-25T05:41:06.087Z,100408.84
2022-11-25T05:43:33.485Z,100380.56
2022-11-25T05:46:05.376Z,100460.09
2022-11-25T05:48:33.886Z,100462.13
2022-11-25T05:51:03.093Z,100325.78
2022-11-25T05:53:31.751Z,100450.91
2022-11-25T05:56:02.144Z,100462.97
2022-11-25T05:58:47.467Z,100355.50
2022-11-25T06:01:20.955Z,100219.63
2022-11-25T06:03:54.989Z,100471.56
2022-11-25T06:06:22.149Z,100468.66
2022-11-25T06:08:49.110Z,100488.41
2022-11-25T06:11:17.611Z,100334.28
2022-11-25T06:13:45.589Z,100472.41
2022-11-25T06:16:21.158Z,100477.13
2022-11-25T06:18:52.367Z,100363.00
2022-11-25T06:21:19.891Z,100462.16
2022-11-25T06:23:47.088Z,100437.25
2022-11-25T06:26:19.561Z,100474.63
2022-11-25T06:28:47.247Z,100483.81
2022-11-25T06:31:19.300Z,100460.81
2022-11-25T06:33:54.985Z,100310.13
2022-11-25T06:36:22.583Z,100328.03
2022-11-25T06:38:51.933Z,100479.97
2022-11-25T06:41:19.812Z,100482.56
2022-11-25T06:43:47.003Z,100467.59
2022-11-25T06:46:18.536Z,100478.25
2022-11-25T06:48:48.268Z,100430.19
2022-11-25T06:51:16.286Z,100338.63
2022-11-25T06:53:43.290Z,100488.66
2022-11-25T06:56:13.276Z,100488.09
2022-11-25T06:58:41.577Z,100499.31
2022-11-25T07:01:14.051Z,100393.13
2022-11-25T07:03:41.797Z,100509.97
2022-11-25T07:06:09.659Z,100516.91
2022-11-25T07:08:36.599Z,100526.47
2022-11-25T07:11:08.888Z,100531.16
2022-11-25T07:13:35.813Z,100462.41
2022-11-25T07:16:04.723Z,100412.28
2022-11-25T07:18:36.534Z,100520.63
2022-11-25T07:21:07.160Z,100543.22
2022-11-25T07:23:35.170Z,100460.41
2022-11-25T07:26:16.641Z,100545.72
2022-11-25T07:28:44.296Z,100552.41
2022-11-25T07:31:24.863Z,100462.91
2022-11-25T07:34:07.231Z,100565.16
2022-11-25T07:36:35.515Z,100571.97
2022-11-25T07:39:08.967Z,100579.22
2022-11-25T07:41:35.769Z,100583.81
2022-11-25T07:44:05.440Z,100487.25
2022-11-25T07:46:45.676Z,100483.31
2022-11-25T07:49:18.600Z,100490.66
2022-11-25T07:51:50.165Z,100591.09
2022-11-25T07:54:17.607Z,100585.91
2022-11-25T07:56:48.498Z,100503.81
2022-11-25T07:59:20.786Z,100592.66
2022-11-25T08:01:52.544Z,100557.66
2022-11-25T08:04:21.117Z,100524.00
2022-11-25T08:06:49.880Z,100553.91
2022-11-25T08:09:19.338Z,100590.44
2022-11-25T08:11:46.691Z,100589.66
2022-11-25T08:14:13.813Z,100591.09
2022-11-25T08:16:40.638Z,100591.81
2022-11-25T08:19:11.528Z,100594.75
2022-11-25T08:21:38.431Z,100481.81
2022-11-25T08:24:05.623Z,100592.50
2022-11-25T08:26:36.515Z,100600.44
2022-11-25T08:29:05.764Z,100604.91
2022-11-25T08:31:35.312Z,100525.38
2022-11-25T08:34:03.235Z,100603.19
2022-11-25T08:36:33.086Z,100475.88
2022-11-25T08:39:02.236Z,100612.16
2022-11-25T08:41:32.221Z,100605.09
2022-11-25T08:44:01.744Z,100509.31
2022-11-25T08:46:33.526Z,100592.75
2022-11-25T08:49:00.774Z,100567.16
2022-11-25T08:51:31.017Z,100612.25
2022-11-25T08:53:58.676Z,100613.28
2022-11-25T08:56:26.729Z,100621.38
2022-11-25T08:58:55.038Z,100591.00
2022-11-25T09:01:23.141Z,100613.53
2022-11-25T09:03:52.032Z,100611.84
2022-11-25T09:06:19.319Z,100617.19
2022-11-25T09:08:46.729Z,100618.38
2022-11-25T09:11:14.192Z,100572.56
2022-11-25T09:13:41.018Z,100635.84
2022-11-25T09:16:08.980Z,100623.34
2022-11-25T09:18:37.117Z,100624.94
2022-11-25T09:21:13.320Z,100619.34
2022-11-25T09:23:40.760Z,100543.81
2022-11-25T09:26:08.615Z,100454.41
2022-11-25T09:28:42.365Z,100600.44
2022-11-25T09:31:09.892Z,100531.56
2022-11-25T09:33:37.208Z,100635.84
2022-11-25T09:36:06.160Z,100629.28
2022-11-25T09:38:34.145Z,100629.69
2022-11-25T09:41:08.576Z,100571.06
2022-11-25T09:44:24.268Z,100367.50
2022-11-25T09:47:09.841Z,100599.84
2022-11-25T09:49:48.067Z,100638.69
2022-11-25T09:52:36.759Z,100641.78
2022-11-25T09:55:17.990Z,100635.03
2022-11-25T09:58:06.005Z,100646.03
2022-11-25T10:00:39.091Z,100648.69
2022-11-25T10:03:20.722Z,100650.63
2022-11-25T10:06:04.979Z,100647.56
2022-11-25T10:08:44.661Z,100605.19
2022-11-25T10:11:20.617Z,100652.44
2022-11-25T10:14:06.037Z,100656.47
2022-11-25T10:16:35.670Z,100661.22
2022-11-25T10:19:17.251Z,100666.31
2022-11-25T10:21:46.340Z,100660.28
2022-11-25T10:24:15.250Z,100614.81
2022-11-25T10:26:49.340Z,100653.63
2022-11-25T10:29:27.558Z,100660.72
2022-11-25T10:32:04.627Z,100651.69
2022-11-25T10:34:40.321Z,100679.25
2022-11-25T10:37:14.511Z,100617.75
2022-11-25T10:39:41.250Z,100673.56
2022-11-25T10:42:18.436Z,100677.00
2022-11-25T10:44:45.194Z,100671.91
2022-11-25T10:47:42.697Z,100673.63
2022-11-25T10:50:51.743Z,100668.06
2022-11-25T10:53:26.292Z,100563.66
2022-11-25T10:56:09.586Z,100597.94
2022-11-25T10:58:39.215Z,100681.13
2022-11-25T11:01:14.158Z,100609.66
2022-11-25T11:03:43.157Z,100633.44
2022-11-25T11:06:28.972Z,100662.94
2022-11-25T11:08:55.712Z,100675.97
2022-11-25T11:11:24.205Z,100675.38
2022-11-25T11:14:18.781Z,100587.03
2022-11-25T11:16:53.281Z,100674.47
2022-11-25T11:19:25.945Z,100682.00
2022-11-25T11:21:53.791Z,100685.56
2022-11-25T11:24:34.348Z,100686.47
2022-11-25T11:27:10.180Z,100690.81
2022-11-25T11:29:37.062Z,100689.47
2022-11-25T11:32:18.854Z,100690.09
2022-11-25T11:35:03.126Z,100609.22
2022-11-25T11:37:35.839Z,100700.75
2022-11-25T11:40:32.024Z,100699.41
2022-11-25T11:43:07.466Z,100695.69
2022-11-25T11:46:10.177Z,100697.84
2022-11-25T11:49:00.456Z,100700.44
2022-11-25T11:51:33.956Z,100670.63
2022-11-25T11:54:16.269Z,100703.09
2022-11-25T11:56:59.624Z,100699.31
2022-11-25T11:59:29.289Z,100701.25
2022-11-25T12:02:28.735Z,100697.75
2022-11-25T12:05:10.869Z,100690.75
2022-11-25T12:08:13.840Z,100698.25
2022-11-25T12:11:05.361Z,100705.91
2022-11-25T12:14:03.250Z,100679.63
2022-11-25T12:16:57.232Z,100705.84
2022-11-25T12:19:45.113Z,100710.84
2022-11-25T12:22:34.300Z,100681.56
2022-11-25T12:25:13.025Z,100709.16
2022-11-25T12:27:50.508Z,100704.91
2022-11-25T12:30:22.667Z,100686.00
2022-11-25T12:32:58.648Z,100704.09
2022-11-25T12:35:51.252Z,100699.56
2022-11-25T12:38:32.797Z,100718.03
2022-11-25T12:41:08.291Z,100704.44
2022-11-25T12:43:50.826Z,100707.75
2022-11-25T12:46:51.134Z,100701.72
2022-11-25T12:49:25.108Z,100724.75
2022-11-25T12:52:16.918Z,100572.97
2022-11-25T12:55:11.745Z,100707.94
2022-11-25T12:58:16.125Z,100712.59
2022-11-25T13:01:19.939Z,100706.41
2022-11-25T13:04:14.840Z,100702.81
2022-11-25T13:06:59.409Z,100711.50
2022-11-25T13:09:41.135Z,100715.50
2022-11-25T13:12:14.441Z,100716.41
2022-11-25T13:14:53.363Z,100715.75
2022-11-25T13:17:22.316Z,100617.88
2022-11-25T13:19:49.602Z,100574.97
2022-11-25T13:22:23.599Z,100715.84
2022-11-25T13:24:50.669Z,100640.50
2022-11-25T13:27:42.019Z,100715.88
2022-11-25T13:30:33.704Z,100723.41
2022-11-25T13:33:09.557Z,100724.41
2022-11-25T13:35:38.317Z,100712.63
2022-11-25T13:38:28.561Z,100721.91
2022-11-25T13:41:01.053Z,100730.16
2022-11-25T13:43:28.552Z,100708.69
2022-11-25T13:45:56.420Z,100725.16
2022-11-25T13:48:32.149Z,100755.28
2022-11-25T13:51:21.668Z,100743.56
2022-11-25T13:54:01.246Z,100686.19
2022-11-25T13:56:37.669Z,100739.13
2022-11-25T13:59:10.299Z,100739.06
2022-11-25T14:01:38.956Z,100737.19
2022-11-25T14:04:08.525Z,100742.81
2022-11-25T14:06:57.465Z,100745.91
2022-11-25T14:10:01.838Z,100747.25
2022-11-25T14:13:04.251Z,100746.81
2022-11-25T14:15:54.609Z,100746.97
2022-11-25T14:18:53.195Z,100748.50
2022-11-25T14:21:26.634Z,100759.66
2022-11-25T14:24:27.234Z,100759.16
2022-11-25T14:26:56.389Z,100767.53
2022-11-25T14:29:32.013Z,100768.97
2022-11-25T14:32:26.703Z,100772.13
2022-11-25T14:34:56.957Z,100770.50
2022-11-25T14:37:46.675Z,100674.97
2022-11-25T14:40:29.243Z,100762.81
2022-11-25T14:43:04.689Z,100665.47
2022-11-25T14:45:33.701Z,100721.06
2022-11-25T14:48:24.173Z,100762.66
2022-11-25T14:51:04.356Z,100759.16
2022-11-25T14:53:31.295Z,100767.84
2022-11-25T14:56:00.259Z,100683.78
2022-11-25T14:58:28.112Z,100690.25
2022-11-25T15:00:57.867Z,100769.78
2022-11-25T15:03:25.117Z,100777.72
2022-11-25T15:06:01.298Z,100781.28
2022-11-25T15:08:37.761Z,100704.97
2022-11-25T15:11:19.027Z,100779.59
2022-11-25T15:13:48.990Z,100583.84
2022-11-25T15:16:18.675Z,100787.06
2022-11-25T15:18:57.510Z,100781.06
2022-11-25T15:22:00.098Z,100708.16
2022-11-25T15:24:30.153Z,100773.69
2022-11-25T15:27:00.138Z,100777.50
2022-11-25T15:29:29.301Z,100769.44
2022-11-25T15:31:57.239Z,100792.16
2022-11-25T15:34:29.141Z,100791.16
2022-11-25T15:37:01.100Z,100755.06
2022-11-25T15:39:30.688Z,100568.78
2022-11-25T15:42:07.687Z,100787.63
2022-11-25T15:44:44.854Z,100719.63
2022-11-25T15:47:15.187Z,100795.38
2022-11-25T15:49:51.633Z,100795.66
2022-11-25T15:52:21.170Z,100719.75
2022-11-25T15:54:53.990Z,100804.91
2022-11-25T15:57:33.956Z,100800.53
2022-11-25T16:00:00.738Z,100803.56
2022-11-25T16:02:49.268Z,100681.50
2022-11-25T16:05:25.260Z,100791.25
2022-11-25T16:07:53.234Z,100795.09
2022-11-25T16:10:19.985Z,100796.88
2022-11-25T16:13:29.564Z,100802.41
2022-11-25T16:16:07.947Z,100802.63
2022-11-25T16:18:50.318Z,100805.69
2022-11-25T16:21:24.196Z,100811.16
2022-11-25T16:23:54.891Z,100768.31
2022-11-25T16:26:29.822Z,100810.16
2022-11-25T16:28:59.135Z,100815.19
2022-11-25T16:31:26.584Z,100813.19
2022-11-25T16:33:56.596Z,100770.72
2022-11-25T16:36:23.481Z,100826.09
2022-11-25T16:38:56.900Z,100826.97
2022-11-25T16:41:25.625Z,100801.34
2022-11-25T16:43:52.852Z,100637.69
2022-11-25T16:46:20.325Z,100802.34
2022-11-25T16:48:47.350Z,100824.97
2022-11-25T16:51:19.544Z,100826.81
2022-11-25T16:53:47.357Z,100799.06
2022-11-25T16:56:23.757Z,100790.19
2022-11-25T16:58:50.652Z,100827.88
2022-11-25T17:01:20.106Z,100879.25
2022-11-25T17:03:46.947Z,100633.44
2022-11-25T17:06:22.202Z,100790.38
2022-11-25T17:08:49.829Z,100755.06
2022-11-25T17:11:21.626Z,100839.03
2022-11-25T17:13:50.839Z,100846.78
2022-11-25T17:16:23.609Z,100848.16
2022-11-25T17:18:53.341Z,100826.38
2022-11-25T17:21:20.549Z,100796.94
2022-11-25T17:23:50.233Z,100732.94
2022-11-25T17:26:35.622Z,100691.44
2022-11-25T17:29:06.373Z,100848.91
2022-11-25T17:31:36.442Z,100812.97
2022-11-25T17:34:03.309Z,100851.94
2022-11-25T17:36:30.093Z,100699.38
2022-11-25T17:38:57.067Z,100698.69
2022-11-25T17:41:28.011Z,100591.78
2022-11-25T17:43:55.218Z,100683.25
2022-11-25T17:46:22.153Z,100851.94
2022-11-25T17:48:48.902Z,100748.03
2022-11-25T17:51:15.701Z,100769.41
2022-11-25T17:53:42.528Z,100868.25
2022-11-25T17:56:25.014Z,100876.59
2022-11-25T17:58:52.829Z,100699.47
2022-11-25T18:01:19.725Z,100748.41
2022-11-25T18:03:49.449Z,100874.69
2022-11-25T18:06:16.197Z,100879.56
2022-11-25T18:08:42.905Z,100881.38
2022-11-25T18:11:14.884Z,100886.75
2022-11-25T18:13:43.703Z,100776.75
2022-11-25T18:16:10.980Z,100888.72
2022-11-25T18:18:38.066Z,100791.84
2022-11-25T18:21:04.806Z,100701.63
2022-11-25T18:23:31.567Z,100894.53
2022-11-25T18:26:01.936Z,100862.91
2022-11-25T18:28:31.028Z,100860.47
2022-11-25T18:31:02.470Z,100908.50
2022-11-25T18:33:30.116Z,100911.69
2022-11-25T18:35:57.039Z,100824.97
2022-11-25T18:38:23.937Z,100875.34
2022-11-25T18:40:53.773Z,100757.53
2022-11-25T18:43:24.560Z,100657.09
2022-11-25T18:45:53.092Z,100848.28
2022-11-25T18:48:22.962Z,100882.81
2022-11-25T18:50:53.109Z,100864.69
2022-11-25T18:53:20.128Z,100846.44
2022-11-25T18:55:48.243Z,100621.25
2022-11-25T18:58:21.468Z,100918.63
2022-11-25T19:00:50.739Z,100913.06
2022-11-25T19:03:22.960Z,100907.69
2022-11-25T19:05:50.295Z,100794.00
2022-11-25T19:08:18.641Z,100902.50
2022-11-25T19:10:47.052Z,100713.78
2022-11-25T19:13:30.271Z,100846.00
2022-11-25T19:16:12.753Z,100918.41
2022-11-25T19:18:39.762Z,100925.69
2022-11-25T19:21:06.597Z,100924.75
2022-11-25T19:23:36.001Z,100931.63
2022-11-25T19:26:11.525Z,100913.38
2022-11-25T19:28:38.528Z,100902.88
2022-11-25T19:31:06.014Z,100935.81
2022-11-25T19:33:38.744Z,100927.75
2022-11-25T19:36:06.703Z,100935.56
2022-11-25T19:38:34.797Z,100871.50
2022-11-25T19:41:01.805Z,100846.63
2022-11-25T19:43:28.669Z,100934.16
2022-11-25T19:45:56.925Z,100880.28
2022-11-25T19:48:29.434Z,100822.78
2022-11-25T19:51:00.020Z,100865.88
2022-11-25T19:53:33.362Z,100949.91
2022-11-25T19:56:04.122Z,100883.78
2022-11-25T19:58:31.578Z,100954.56
2022-11-25T20:01:03.385Z,100951.13
2022-11-25T20:03:31.285Z,100961.94
2022-11-25T20:05:58.794Z,100941.91
2022-11-25T20:08:27.604Z,100957.59
2022-11-25T20:10:55.771Z,100962.47
2022-11-25T20:13:26.232Z,100863.91
2022-11-25T20:15:55.943Z,100818.25
2022-11-25T20:18:25.280Z,100967.69
2022-11-25T20:21:06.373Z,100953.47
2022-11-25T20:23:43.258Z,100962.31
2022-11-25T20:26:23.120Z,100897.22
2022-11-25T20:28:49.947Z,100955.47
2022-11-25T20:31:16.734Z,100961.41
2022-11-25T20:33:43.569Z,100942.84
2022-11-25T20:36:16.342Z,100965.78
2022-11-25T20:38:47.346Z,100716.72
2022-11-25T20:41:15.390Z,100954.06
2022-11-25T20:43:44.631Z,100934.03
2022-11-25T20:46:16.440Z,100844.53
2022-11-25T20:48:44.452Z,100978.88
2022-11-25T20:51:22.393Z,100972.25
2022-11-25T20:53:52.035Z,100990.19
2022-11-25T20:56:21.758Z,100920.22
2022-11-25T20:58:48.554Z,100954.47
2022-11-25T21:01:16.929Z,100982.78
2022-11-25T21:03:44.816Z,100991.47
2022-11-25T21:06:27.660Z,100988.16
2022-11-25T21:08:56.645Z,100953.22
2022-11-25T21:11:23.448Z,100999.81
2022-11-25T21:13:51.971Z,101007.22
2022-11-25T21:16:18.787Z,100955.50
2022-11-25T21:18:45.925Z,101006.44
2022-11-25T21:21:17.334Z,101011.41
2022-11-25T21:23:51.215Z,100906.97
2022-11-25T21:26:25.057Z,100973.59
2022-11-25T21:28:54.885Z,101014.09
2022-11-25T21:31:25.893Z,101013.09
2022-11-25T21:34:02.527Z,101012.25
2022-11-25T21:36:30.947Z,100847.06
2022-11-25T21:39:04.134Z,100926.09
2022-11-25T21:41:30.919Z,100968.00
2022-11-25T21:43:57.942Z,101031.16
2022-11-25T21:46:28.831Z,101019.06
2022-11-25T21:48:55.782Z,101015.47
2022-11-25T21:51:24.315Z,100947.84
2022-11-25T21:53:54.595Z,101011.81
2022-11-25T21:56:31.572Z,100852.09
2022-11-25T21:59:00.666Z,101031.66
2022-11-25T22:01:27.784Z,100948.00
2022-11-25T22:03:54.749Z,101028.38
2022-11-25T22:06:24.831Z,100877.75
2022-11-25T22:08:51.866Z,101035.78
2022-11-25T22:11:22.146Z,101033.97
2022-11-25T22:13:50.013Z,100956.84
2022-11-25T22:16:24.420Z,100948.69
2022-11-25T22:18:51.483Z,100891.25
2022-11-25T22:21:18.220Z,101036.00
2022-11-25T22:23:44.949Z,101001.31
2022-11-25T22:26:21.020Z,101013.63
2022-11-25T22:28:51.767Z,100899.78
2022-11-25T22:31:19.998Z,101035.66
2022-11-25T22:33:47.275Z,101015.09
2022-11-25T22:36:36.943Z,101035.34
2022-11-25T22:39:18.791Z,101031.94
2022-11-25T22:41:49.467Z,101053.78
2022-11-25T22:44:32.424Z,101039.56
2022-11-25T22:46:59.403Z,101033.84
2022-11-25T22:49:31.080Z,100993.13
2022-11-25T22:51:58.189Z,100945.38
2022-11-25T22:54:25.427Z,101046.50
2022-11-25T22:56:52.252Z,100979.16
2022-11-25T22:59:18.955Z,100980.41
2022-11-25T23:01:46.035Z,101007.59
2022-11-25T23:04:20.412Z,100973.56
2022-11-25T23:06:47.614Z,101048.00
2022-11-25T23:09:17.758Z,101043.38
2022-11-25T23:11:45.623Z,100712.00
2022-11-25T23:14:12.519Z,100997.56
2022-11-25T23:16:40.886Z,101013.09
2022-11-25T23:19:16.772Z,100956.25
2022-11-25T23:21:45.719Z,101056.56
2022-11-25T23:24:16.892Z,101059.28
2022-11-25T23:26:44.378Z,100916.81
2022-11-25T23:29:11.196Z,101055.69
2022-11-25T23:31:40.276Z,101038.22
2022-11-25T23:34:08.088Z,101029.47
2022-11-25T23:36:48.804Z,101029.22
2022-11-25T23:39:24.153Z,100985.09
2022-11-25T23:41:51.463Z,100998.03
2022-11-25T23:44:31.835Z,100983.44
2022-11-25T23:47:02.116Z,101035.00
2022-11-25T23:49:34.323Z,101049.13
2022-11-25T23:52:07.845Z,100969.34
2022-11-25T23:54:42.488Z,100986.81
2022-11-25T23:57:21.376Z,100994.13
2022-11-25T23:59:49.052Z,101030.34
